AirNav   Air Wisconsin Up To $57,000 Bonus
 
 1003 users online  

74S Anacortes Airport
Anacortes, Washington, USA

GOING TO ANACORTES?


FAA INFORMATION EFFECTIVE 03 NOVEMBER 2022

Location

FAA Identifier: 74S
Lat/Long: 48-29-54.6250N 122-39-44.8850W
48-29.910417N 122-39.748083W
48.4985069,-122.6624681
(estimated)
Elevation: 246.1 ft. / 75.0 m (surveyed)
Variation: 21E (1985)
From city: 2 miles W of ANACORTES, WA
Time zone: UTC -8 (UTC -7 during Daylight Saving Time)
Zip code: 98221

Airport Operations

Airport use: Open to the public
Activation date: 12/1970
Control tower: no
ARTCC: SEATTLE CENTER
FSS: SEATTLE FLIGHT SERVICE STATION
NOTAMs facility: SEA (NOTAM-D service available)
Attendance: UNATNDD
Wind indicator: yes
Segmented circle: yes
Lights: ACTVT MIRL & REILS RY 18/36 - CTAF.
Beacon: white-green (lighted land airport)
Operates sunset to sunrise.
International operations: customs landing rights airport

Airport Communications

CTAF: 128.25
WX ASOS at NUW (9 nm S): PHONE 360-257-8813
WX AWOS-3 at BVS (10 nm E): 121.125 (360-757-7767)
WX ASOS at FHR (14 nm W): 135.675 (360-378-8491)
WX AWOS-3 at OKH (15 nm S): 132.775 (360-675-8431)
WX AWOS-3 at ORS (16 nm NW): 135.425 (360-376-6045)
WX ASOS at BLI (18 nm N): PHONE 360-671-8688

Nearby radio navigation aids

VOR radial/distance  VOR name  Freq  Var
CVVr350/15.4PENN COVE VOR/DME117.2019E
HUHr167/27.0WHATCOM VORTAC113.0020E
YYJr096/35.4VICTORIA VOR/DME113.7017E
PAEr316/38.0PAINE VOR/DME110.6020E
YVRr134/39.7VANCOUVER VOR/DME115.9017E

 
NDB name  Hdg/Dist  Freq  Var  ID
SKAGIT/BAY VIEW264/9.924016EBVS -... ...- ...
FRIDAY HARBOR076/14.428417EFHR ..-. .... .-.
EDIZ HOOK037/36.633817ENOW -. --- .--

Airport Services

Fuel available: 100 JET-A
Oil available: AUTOMATED UNICOM; 122.9. ADZY ALSO AVBL AT 617-262-3825.
Parking: tiedowns
Airframe service: NONE
Powerplant service: NONE
Bottled oxygen: NONE
Bulk oxygen: NONE

Runway Information

Runway 18/36

Dimensions: 3018 x 60 ft. / 920 x 18 m
Surface: asphalt/grooved, in good condition
Weight bearing capacity: 
Single wheel: 12.5
Runway edge lights: medium intensity
RUNWAY 18  RUNWAY 36
Latitude: 48-30.144018N48-29.677703N
Longitude: 122-39.620133W122-39.876007W
Elevation: 237.7 ft.246.1 ft.
Traffic pattern: rightleft
Runway heading: 179 magnetic, 200 true359 magnetic, 020 true
Markings: basic, in good conditionbasic, in good condition
Visual slope indicator: 4-light PAPI on right (3.00 degrees glide path)4-light PAPI on left (3.00 degrees glide path)
Runway end identifier lights: yesyes
Touchdown point: yes, no lightsyes, no lights
Obstructions: 22 ft. tree, 767 ft. from runway, 25:1 slope to clear20 ft. trees, 1158 ft. from runway, 46:1 slope to clear

Airport Ownership and Management from official FAA records

Ownership: Publicly-owned
Owner: PORT OF ANACORTES
100 COMMERCIAL AVENUE
ANACORTES, WA 98221
Phone 360-293-3134
Manager: JOHN DUMAS
100 COMMERCIAL AVENUE
ANACORTES, WA 98221
Phone 360-293-3134

Airport Operational Statistics

Aircraft based on the field: 26
Single engine airplanes: 26
    
Aircraft operations: avg 25/day *
44% transient general aviation
39% local general aviation
17% air taxi
* for 12-month period ending 31 December 2019

Additional Remarks

MILITARY ARRIVAL CORRIDOR N & W OF ARPT.
RWY 36 PREFERRED CALM WIND RY.
NOISE ABATEMENT PROCEDURES IN EFFECT; CTC AMGR 360-293-3134.
NO TOUCH & GO LDGS.
FOR CD CTC WHIDBEY APCH AT 360-257-3310.
DEER AND COYOTE NEAR MOV AREAS.

Instrument Procedures

There are no published instrument procedures at 74S.

Some nearby airports with instrument procedures:

KNUW - Whidbey Island Naval Air Station (Ault Field) Airport (9 nm S)
KBVS - Skagit Regional Airport (10 nm E)
KFHR - Friday Harbor Airport (14 nm W)
KOKH - AJ Eisenberg Airport (15 nm S)
KORS - Orcas Island Airport (16 nm NW)
KBLI - Bellingham International Airport (18 nm N)
 
Loc | Ops | Rwys | IFR | FBO | Links
Com | Nav | Svcs | Stats | Notes
Area around 74S (Anacortes Airport)
 
Road maps at: MapQuest Bing Google
 
Aerial photo
WARNING: Photo may not be current or correct
Aerial photo of 74S (Anacortes Airport)
Photo by S. Paulay
Photo taken 04-Jul-2007

Do you have a better or more recent aerial photo of Anacortes Airport that you would like to share? If so, please send us your photo.

 
Sectional chart

 
Airport distance calculator
Flying to Anacortes Airport? Find the distance to fly.

From to 74S

Sunrise and sunset
Times for 29-Nov-2022
 Local
(UTC-8)
 Zulu
(UTC)
Morning civil twilight07:0415:04
Sunrise07:4015:40
Sunset16:1800:18
Evening civil twilight16:5400:54

Current date and time
Zulu (UTC)  30-Nov-2022 01:35:13
Local (UTC-8)  29-Nov-2022 17:35:13
 
METAR
KNUW 
9nm S 
300053Z 13029G40KT 8SM -SN SCT012 BKN020 OVC085 03/00 A2965 RMK AO2 PK WND 14040/0009 PRESFR SLP040 P0000 T00280000 VISNO $
KBVS 
10nm E 
300115Z AUTO 12015G22KT 10SM OVC025 03/01 A2965 RMK A01
KFHR 
15nm W 
300053Z AUTO 14021G37KT 10SM OVC014 04/01 A2960 RMK AO2 PK WND 12041/0018 SLP023 T00390006
KORS 
15nm NW 
300115Z AUTO 14017G31KT 10SM FEW021 BKN028 OVC040 04/01 A2956 RMK AO2
KBLI 
19nm N 
300053Z 04007KT 6SM -SN BR FEW022 OVC030 M01/M03 A2964 RMK AO2 SNB2356 PRESFR SLP046 P0000 T10061028
TAF
KNUW 
9nm S 
2923/3023 14024G32KT 9000 -RASN BKN015 BKN025 OVC080 650009 640905 540209 541109 QNH2965INS TEMPO 2923/3005 15030G45KT 3200 -SN FEW003 BKN010 OVC025 FM300700 16028G35KT 9999 -RA BKN015 BKN080 BKN140 WSCONDS 640209 641108 580109 541005 QNH2942INS TEMPO 3008/3011 14032G45KT 6000 RA BKN020 OVC050 FM301200 16014KT 9999 VCSH SCT030 BKN050 BKN080 640307 540309 QNH2939INS FM301800 16008KT 9999 SCT030 SCT050 BKN120 BKN200 640307 540309 QNH2952INS T03/2923Z TM03/3012Z FS30028
KBLI 
19nm N 
291734Z 2918/3018 06008KT P6SM OVC035 FM292000 06013G20KT P6SM -SN OVC025 FM300300 10025G35KT P6SM -RASN OVC035 FM301500 13017G24KT P6SM -SN OVC050
NOTAMs
Click for the latest NOTAMs
NOTAMs are issued by the DoD/FAA and will open in a separate window not controlled by AirNav.

 

 
 

FBO, Fuel Providers, and Aircraft Ground Support

  
 Business Name 
 
 Contact 
 
 Services / Description 
 
Fuel Prices
 
Comments
  
 Port of Anacortes
360-293-3134
[web site]
[email]
Airport management, Aviation fuel, Aircraft parking (ramp or tiedown), Aerial tours / aerial sightseeing, Aircraft charters, Scheduled airline carrier

More info about Port of Anacortes
Phillips 66
100LL Jet A
SS $5.95 $5.61 
 Updated 23-Nov-2022
 
   2 read write
SS=Self service
Update Fuel Prices
 

Would you like to see your business listed on this page?

 If your business provides an interesting product or service to pilots, flight crews, aircraft, or users of the Anacortes Airport, you should consider listing it here.  To start the listing process, click on the button below
 
Add a business
 

Other Pages about Anacortes Airport

www.portofanacortes.com/airport
 
Update a link
 
Copyright © AirNav, LLC. All rights reserved. Privacy Policy  Contact